Motte Rimrock Reserve, California Weather observations

Data are for 10 minute period ending at time listed.
 Day   Time   Solar   Ave.   Ave.  Ave.  Vector  Max.   Baro.   Total    
  of    of     Rad.   Air    Rel.  Wind   Wind   Wind  Press.  Precip.   
Year   Day            Temp.  Hum.  Speed  Dir.   Gust                    
2017   (PST)  Kw/m2    F      %     mph   deg.    mph    mb.     in.     
-------------------------------------------------------------------------
 261    5:30   0.00   58.3    92    2.9     4     3.8   945.5    0.00 
 261    5:40   0.00   58.2    92    3.0   356     3.5   945.6    0.00 
 261    5:50   0.00   58.1    92    3.1   345     3.7   945.6    0.00 
 261    6:00   0.02   58.0    92    3.2   349     3.9   945.7    0.00 
 261    6:10   0.03   58.2    92    3.1   343     3.9   945.8    0.00 
 261    6:20   0.06   58.2    92    3.9   336     4.8   945.9    0.00 
 261    6:30   0.07   58.4    92    3.7   345     4.9   945.9    0.00 
 261    6:40   0.10   58.6    92    3.4   348     4.4   946.0    0.00 
 261    6:50   0.14   59.0    92    3.2   352     4.2   946.2    0.00 
 261    7:00   0.16   59.2    92    4.7   336     6.6   946.3    0.00 
 261    7:10   0.23   59.4    92    4.1   326     5.9   946.5    0.00 
 261    7:20   0.25   59.4    91    3.6   324     5.0   946.6    0.00 
 261    7:30   0.29   60.0    91    3.2   325     5.1   946.8    0.00 
 261    7:40   0.33   59.7    90    4.8   320     6.4   946.9    0.00 
 261    7:50   0.39   60.4    90    5.4   314     7.7   947.0    0.00 
 261    8:00   0.38   60.7    88    5.9   311     7.2   947.1    0.00 
 261    8:10   0.44   61.9    85    5.3   328     7.6   947.2    0.00 
 261    8:20   0.47   62.9    81    4.5   312     6.9   947.3    0.00 
 261    8:30   0.50   64.1    78    4.5   315     7.0   947.3    0.00 
 261    8:40   0.53   65.2    75    5.1   294     7.8   947.4    0.00 
 261    8:50   0.56   65.6    73    6.4   297     9.0   947.4    0.00 
 261    9:00   0.59   66.0    72    7.1   304     9.1   947.4    0.00 
 261    9:10   0.62   66.3    72    6.6   309    10.2   947.5    0.00 
 261    9:20   0.65   67.1    70    5.2   310     8.4   947.5    0.00 
 261    9:30   0.68   68.3    67    4.6   301     8.0   947.4    0.00 
 261    9:40   0.70   69.7    64    3.9   284     7.8   947.5    0.00 
 261    9:50   0.72   70.2    63    2.7   319     7.2   947.5    0.00 
 261   10:00   0.74   70.8    62    4.1   295     8.4   947.5    0.00 
 261   10:10   0.76   71.5    60    4.9   312    10.8   947.4    0.00 
 261   10:20   0.77   72.2    59    3.1   285     8.4   947.4    0.00 
 261   10:30   0.79   73.3    56    5.4   282     9.7   947.3    0.00 
 261   10:40   0.81   74.1    54    4.7   296    10.0   947.1    0.00 
 261   10:50   0.81   74.1    54    4.2   317     8.6   947.0    0.00 
 261   11:00   0.82   74.9    53    3.5   298     7.4   946.8    0.00 
 261   11:10   0.84   77.1    48    4.3   256     9.1   946.7    0.00 
 261   11:20   0.84   77.2    48    7.1   280    12.0   946.6    0.00 
 261   11:30   0.84   77.8    47    9.8   295    15.6   946.4    0.00 
 261   11:40   0.84   77.4    48    9.2   285    13.5   946.3    0.00 
 261   11:50   0.84   78.2    46    9.2   296    14.5   946.2    0.00 
 261   12:00   0.85   78.0    47   10.8   298    14.7   946.1    0.00 
 261   12:10   0.84   77.9    46   10.4   314    16.0   946.1    0.00 
 261   12:20   0.84   77.9    46   10.5   292    16.9   946.0    0.00 
 261   12:30   0.84   78.3    45   10.6   294    15.9   945.8    0.00 
 261   12:40   0.82   78.3    44   10.8   293    15.5   945.7    0.00 
 261   12:50   0.81   79.1    42    9.7   299    14.8   945.6    0.00 
 261   13:00   0.80   79.1    42   11.3   310    15.9   945.5    0.00 
 261   13:10   0.79   79.4    41   11.9   311    16.2   945.4    0.00 
 261   13:20   0.76   80.2    39   12.9   309    17.6   945.3    0.00 
 261   13:30   0.72   80.4    39   13.3   301    20.8   945.2    0.00 
 261   13:40   0.73   79.9    41   13.7   315    18.2   945.2    0.00 
 261   13:50   0.72   80.5    40   14.0   313    18.0   945.1    0.00 
 261   14:00   0.70   80.5    41   14.2   306    20.8   945.0    0.00 
 261   14:10   0.67   80.3    41   13.3   302    17.9   945.0    0.00 
 261   14:20   0.64   80.4    41   14.5   300    18.6   944.9    0.00 
 261   14:30   0.61   80.6    41   14.4   298    20.1   944.8    0.00 
 261   14:40   0.58   79.6    42   15.1   309    19.6   944.7    0.00 
 261   14:50   0.55   79.5    42   14.6   307    19.5   944.8    0.00 
 261   15:00   0.53   79.8    41   13.7   306    18.2   944.8    0.00 
 261   15:10   0.50   80.3    40   12.5   304    16.4   944.8    0.00 
 261   15:20   0.47   80.0    40   13.3   316    22.1   944.7    0.00 
 261   15:30   0.44   79.9    40   12.9   307    17.5   944.7    0.00 
 261   15:40   0.41   79.5    40   13.0   308    19.2   944.7    0.00 
 261   15:50   0.37   79.1    40   12.8   305    17.7   944.7    0.00 
 261   16:00   0.34   78.7    39   12.8   314    17.8   944.7    0.00 
 261   16:10   0.30   78.5    40   12.0   309    15.4   944.7    0.00 
 261   16:20   0.27   78.2    40   13.2   308    16.3   944.8    0.00 
 261   16:30   0.23   77.9    41   13.2   303    17.2   944.9    0.00 
 261   16:40   0.19   77.3    41   12.2   306    16.3   944.8    0.00 
 261   16:50   0.16   77.1    42   11.8   301    15.3   944.8    0.00 
 261   17:00   0.14   76.4    44   11.8   296    15.4   944.8    0.00 
 261   17:10   0.10   75.6    46   12.1   300    14.8   944.8    0.00 
 261   17:20   0.08   74.9    48   11.4   307    15.2   944.9    0.00 
 261   17:30   0.06   74.5    49    9.9   308    13.3   945.0    0.00 
 261   17:40   0.03   73.7    50    9.5   310    13.2   945.0    0.00 
 261   17:50   0.02   73.3    51    2.3   348     5.8   945.3    0.00 
 261   18:00   0.01   72.3    54    4.9   327     9.1   945.4    0.00 
 261   18:10   0.01   71.0    56    7.7   319    10.8   945.4    0.00 
 261   18:20   0.01   70.1    59    7.8   311    11.6   945.4    0.00 
 261   18:30   0.00   69.5    61   10.0   311    13.9   945.5    0.00 
 261   18:40   0.00   68.7    62   11.9   307    15.6   945.6    0.00 
 261   18:50   0.00   68.3    63    8.9   308    13.2   945.7    0.00 
 261   19:00   0.00   67.8    64    8.5   307    11.5   945.8    0.00 
 261   19:10   0.00   67.4    65    9.2   306    11.7   945.8    0.00 
 261   19:20   0.00   66.9    67    9.0   309    11.2   946.0    0.00 
 261   19:30   0.00   66.4    69    6.5   314    11.2   946.0    0.00 
 261   19:40   0.00   66.3    69    0.8    84     2.4   946.0    0.00 
 261   19:50   0.00   66.1    69    0.3   112     1.6   946.0    0.00 
 261   20:00   0.00   65.7    72    1.0   165     2.9   946.0    0.00 
 261   20:10   0.00   65.2    75    0.7   142     1.6   946.1    0.00 
 261   20:20   0.00   64.7    76    0.5   313     2.6   946.0    0.00 
 261   20:30   0.00   64.3    73    5.0   328     6.0   945.9    0.00 
 261   20:40   0.00   64.0    74    4.3   341     5.7   945.9    0.00 
 261   20:50   0.00   64.0    74    3.7   351     4.4   945.8    0.00 
 261   21:00   0.00   63.7    75    3.6   356     5.0   945.8    0.00 
 261   21:10   0.00   63.2    77    6.5   338     8.5   945.8    0.00 
 261   21:20   0.00   62.4    79    7.0   327     8.6   946.0    0.00 
 261   21:30   0.00   61.7    81    7.5   318    10.8   946.1    0.00 
 261   21:40   0.00   61.0    84   10.1   316    13.2   946.2    0.00 
 261   21:50   0.00   60.5    87   10.0   313    13.3   946.2    0.00 
 261   22:00   0.00   60.1    88    9.8   312    13.1   946.1    0.00 
 261   22:10   0.00   59.8    89    8.2   303    11.2   946.1    0.00 
 261   22:20   0.00   59.5    90    5.3   285     9.9   946.2    0.00 
 261   22:30   0.00   59.1    90    2.5   273     3.7   946.2    0.00 
 261   22:40   0.00   58.8    90    1.8   262     4.3   946.1    0.00 
 261   22:50   0.00   58.5    91    2.4   298     3.1   946.1    0.00 
 261   23:00   0.00   58.4    92    2.5   330     3.3   946.1    0.00 
 261   23:10   0.00   58.5    92    4.9   344     7.8   946.2    0.00 
 261   23:20   0.00   58.9    93    5.8   327     8.4   946.2    0.00 
 261   23:30   0.00   59.0    93    5.7   292     7.2   946.2    0.00 
 261   23:40   0.00   59.1    93    4.2   284     6.8   946.2    0.00 
 261   23:50   0.00   59.0    93    3.1   290     4.7   946.1    0.00 
 262    0:00   0.00   59.1    94    1.6   306     3.0   946.2    0.00 
 262    0:10   0.00   59.1    94    3.0   291     3.9   946.0    0.00 
 262    0:20   0.00   59.2    94    3.5   320     4.8   946.0    0.00 
 262    0:30   0.00   59.4    94    3.0   322     5.1   946.1    0.00 
 262    0:40   0.00   59.7    93    1.8   301     3.9   946.1    0.00 
 262    0:50   0.00   59.8    93    2.8   311     3.7   946.0    0.00 
 262    1:00   0.00   59.8    93    1.8   349     3.9   945.9    0.00 
 262    1:10   0.00   59.8    92    1.5   160     3.7   945.9    0.00 
 262    1:20   0.00   59.6    92    2.9   138     4.3   945.9    0.00 
 262    1:30   0.00   59.4    91    3.3   161     4.4   945.8    0.00 
 262    1:40   0.00   59.3    91    3.3   175     3.9   945.8    0.00 
 262    1:50   0.00   59.4    91    3.3   192     4.5   945.8    0.00 
 262    2:00   0.00   59.4    91    3.9   186     4.7   945.9    0.00 
 262    2:10   0.00   59.3    91    4.2   175     4.9   945.8    0.00 
 262    2:20   0.00   59.3    91    3.8   174     5.0   945.8    0.00 
 262    2:30   0.00   59.5    91    2.6   188     3.5   945.8    0.00 
 262    2:40   0.00   59.6    90    3.5   170     4.8   945.8    0.00 
 262    2:50   0.00   59.6    90    3.9   176     4.7   945.7    0.00 
 262    3:00   0.00   59.7    90    3.4   166     4.6   945.8    0.00 
 262    3:10   0.00   59.6    90    4.4   174     5.6   945.7    0.00 
 262    3:20   0.00   59.5    90    4.3   154     5.6   945.7    0.00 
 262    3:30   0.00   59.4    90    4.7   151     5.6   945.6    0.00 
 262    3:40   0.00   59.3    91    4.4   151     5.9   945.6    0.00 
 262    3:50   0.00   59.2    91    4.9   152     6.4   945.5    0.00 
 262    4:00   0.00   59.0    91    5.9   148     7.7   945.6    0.00 
 262    4:10   0.00   58.6    92    7.3   152     8.8   945.6    0.00 
 262    4:20   0.00   58.4    92    7.9   149    10.4   945.6    0.00 
 262    4:30   0.00   58.2    92    7.5   151     9.3   945.5    0.00 
 262    4:40   0.00   58.1    92    6.9   149     8.6   945.6    0.00 
 262    4:50   0.00   58.2    92    5.4   157     7.2   945.6    0.00 
 262    5:00   0.00   58.2    91    5.7   167     7.4   945.6    0.00 
 262    5:10   0.00   58.3    90    5.5   168     7.3   945.6    0.00 
 262    5:20   0.00   58.4    89    5.7   180     7.0   945.7    0.00 

Return to Motte Rimrock Reserve graphs page.


Western Regional Climate Center,wrcc@dri.edu